Enter the Airport ICAO Code

Search by Airport or City

Current Weather

LGAV | Athens International Airport (Eleftherios Venizelos Airport)

Athens, Greece

Last Update 11 Minutes Ago

Sky with Few Clouds

Temperature of 29 ºC

Light to Moderate Winds from East

Temperature

29 ºC

Dew Point Temperature

15 ºC

Relative Humidity

42.77 %

Wind Direction

East (100º, Without Significant Variations)

Wind Velocity

15 km/h (08 kt)

Gusts

None

Visibility

Greater than 10 Kilometers

Sea Level Pressure

1016 hPa (Hectopascals)

Layers of Clouds

5% to 30% of Sky Covered from 914 mts (3000 ft) Above Ground Level.

METAR LGAV 211350Z 10008KT 9999 FEW030 29/15 Q1016 NOSIG

Weather Forecast

LGAV | Athens International Airport (Eleftherios Venizelos Airport)

Athens, Greece

Forecast valid for the next 22 Hours

From now on it is expected:

Sky with Few Clouds

Moderate Winds from NorthEast

In 11 to 13 hours it is expected the begining of:

Partly Cloudy Sky

In 20 hours it is expected the begining of 2 hours with intermittent periods of:

Rain

Maximum Temperature

No Data

Minimum Temperature

No Data

TAF LGAV 211100Z 2112/2212 06012KT 9999 FEW020 BECMG 2201/2203 SCT018 SCT070 PROB30 TEMPO 2210/2212 5000 RA BKN015 BKN070